This is the latest recevied weather packets stored in our database for station/object R6HABA-13. If no packets are shown the sender has not sent any weather packets the latest 10 day(s).
| Time | Temp. | Humidity | Pressure | Rain* | Wind** | Luminosity | Snow |
|---|---|---|---|---|---|---|---|
| 1778061603 | 22.78° C | 46% | 1009 hPa | - | 3.58 m/s, 272° | - | - |
| 1778060703 | 22.78° C | 46% | 1009 hPa | - | 3.58 m/s, 272° | - | - |
| 1778059933 | -17.78° C | 52% | 1009 hPa | - | 3.58 m/s, 272° | - | - |
| 1778059295 | -17.78° C | - | 1009 hPa | - | 3.58 m/s, 271° | - | - |
| 1778058003 | 20° C | 56% | 1009 hPa | - | 3.58 m/s, 271° | - | - |
| 1778057103 | 20° C | 56% | 1009 hPa | - | 3.58 m/s, 271° | - | - |
| 1778056203 | 20° C | 56% | 1009 hPa | - | 3.58 m/s, 271° | - | - |
| 1778055304 | 20° C | 56% | 1009 hPa | - | 3.58 m/s, 271° | - | - |
| 1778054403 | 20° C | 56% | 1009 hPa | - | 3.58 m/s, 271° | - | - |
| 1778053503 | 20° C | 56% | 1009 hPa | - | 3.58 m/s, 271° | - | - |
| 1778052603 | 17.22° C | 65% | 1009 hPa | - | 3.58 m/s, 264° | - | - |
| 1778051703 | 17.22° C | 65% | 1009 hPa | - | 3.58 m/s, 264° | - | - |
| 1778050803 | 17.22° C | 65% | 1010 hPa | - | 3.58 m/s, 264° | - | - |
| 1778050294 | 17.22° C | - | 0 hPa | - | 3.58 m/s, 264° | - | - |
| 1778049395 | -17.78° C | - | 1010 hPa | - | 3.58 m/s, 262° | - | - |
| 1778048103 | 17.22° C | 68% | 1009 hPa | - | 3.58 m/s, 262° | - | - |
| 1778047204 | 17.22° C | 68% | 1009 hPa | - | 4.02 m/s, 262° | - | - |
| 1778046956 | -17.78° C | 69% | 0 hPa | - | 0 m/s | - | - |
| 1778045533 | -17.78° C | 73% | 1009 hPa | - | 4.02 m/s, 262° | - | - |
| 1778045156 | -17.78° C | - | 0 hPa | - | 0 m/s | - | - |
| 1778043603 | 15° C | 78% | 1009 hPa | - | 3.58 m/s, 248° | - | - |
| 1778042703 | 15° C | 78% | 1009 hPa | - | 3.58 m/s, 248° | - | - |
| 1778041803 | 12.78° C | 89% | 1009 hPa | - | 2.24 m/s, 227° | - | - |
| 1778040902 | 12.78° C | 89% | 1009 hPa | - | 2.24 m/s, 227° | - | - |
| 1778040003 | 12.78° C | 89% | 1009 hPa | - | 2.24 m/s, 227° | - | - |
* Rain since midnight (hover to see other rain measurements)
** Current wind speed in m/s (hover to see current wind gust speed)